sensor_id;sensor_type;location;lat;lon;timestamp;P1;durP1;ratioP1;P2;durP2;ratioP2
13872;SDS011;7006;51.494;11.964;2022-08-02T00:00:26;7.33;;;3.40;;
13872;SDS011;7006;51.494;11.964;2022-08-02T00:02:53;6.47;;;3.30;;
13872;SDS011;7006;51.494;11.964;2022-08-02T00:05:19;6.83;;;4.23;;
13872;SDS011;7006;51.494;11.964;2022-08-02T00:07:47;8.30;;;3.90;;
13872;SDS011;7006;51.494;11.964;2022-08-02T00:10:14;7.50;;;3.67;;
13872;SDS011;7006;51.494;11.964;2022-08-02T00:12:40;5.60;;;3.37;;
13872;SDS011;7006;51.494;11.964;2022-08-02T00:15:07;7.10;;;3.80;;
13872;SDS011;7006;51.494;11.964;2022-08-02T00:17:35;6.60;;;3.70;;
13872;SDS011;7006;51.494;11.964;2022-08-02T00:20:01;5.80;;;3.57;;
13872;SDS011;7006;51.494;11.964;2022-08-02T00:22:28;6.57;;;3.70;;
13872;SDS011;7006;51.494;11.964;2022-08-02T00:24:56;8.10;;;3.57;;
13872;SDS011;7006;51.494;11.964;2022-08-02T00:27:23;4.60;;;3.37;;
13872;SDS011;7006;51.494;11.964;2022-08-02T00:29:50;7.10;;;3.87;;
13872;SDS011;7006;51.494;11.964;2022-08-02T00:32:16;8.07;;;3.80;;
13872;SDS011;7006;51.494;11.964;2022-08-02T00:34:43;5.00;;;3.50;;
13872;SDS011;7006;51.494;11.964;2022-08-02T00:37:09;7.87;;;3.13;;
13872;SDS011;7006;51.494;11.964;2022-08-02T00:39:36;7.40;;;3.60;;
13872;SDS011;7006;51.494;11.964;2022-08-02T00:42:04;5.70;;;3.83;;
13872;SDS011;7006;51.494;11.964;2022-08-02T00:44:31;7.57;;;4.03;;
13872;SDS011;7006;51.494;11.964;2022-08-02T00:46:58;6.10;;;4.00;;
13872;SDS011;7006;51.494;11.964;2022-08-02T00:49:24;4.73;;;3.20;;
13872;SDS011;7006;51.494;11.964;2022-08-02T00:51:51;4.30;;;3.67;;
13872;SDS011;7006;51.494;11.964;2022-08-02T00:54:18;7.43;;;3.63;;
13872;SDS011;7006;51.494;11.964;2022-08-02T00:56:44;7.37;;;4.20;;
13872;SDS011;7006;51.494;11.964;2022-08-02T00:59:12;9.47;;;4.20;;
13872;SDS011;7006;51.494;11.964;2022-08-02T01:01:38;7.07;;;3.67;;
13872;SDS011;7006;51.494;11.964;2022-08-02T01:04:06;4.43;;;3.50;;
13872;SDS011;7006;51.494;11.964;2022-08-02T01:06:33;4.93;;;3.33;;
13872;SDS011;7006;51.494;11.964;2022-08-02T01:09:01;4.50;;;3.30;;
13872;SDS011;7006;51.494;11.964;2022-08-02T01:11:28;6.70;;;2.97;;
13872;SDS011;7006;51.494;11.964;2022-08-02T01:13:55;7.83;;;3.73;;
13872;SDS011;7006;51.494;11.964;2022-08-02T01:16:25;7.57;;;3.33;;
13872;SDS011;7006;51.494;11.964;2022-08-02T01:18:57;5.53;;;4.00;;
13872;SDS011;7006;51.494;11.964;2022-08-02T01:21:34;5.70;;;3.47;;
13872;SDS011;7006;51.494;11.964;2022-08-02T01:24:13;6.77;;;3.50;;
13872;SDS011;7006;51.494;11.964;2022-08-02T01:26:45;5.90;;;3.83;;
13872;SDS011;7006;51.494;11.964;2022-08-02T01:29:17;4.77;;;3.57;;
13872;SDS011;7006;51.494;11.964;2022-08-02T01:31:47;6.00;;;3.70;;
13872;SDS011;7006;51.494;11.964;2022-08-02T01:34:17;8.93;;;4.23;;
13872;SDS011;7006;51.494;11.964;2022-08-02T01:36:47;5.50;;;3.50;;
13872;SDS011;7006;51.494;11.964;2022-08-02T01:39:18;6.53;;;3.80;;
13872;SDS011;7006;51.494;11.964;2022-08-02T01:41:46;5.00;;;4.00;;
13872;SDS011;7006;51.494;11.964;2022-08-02T01:44:13;5.77;;;3.83;;
13872;SDS011;7006;51.494;11.964;2022-08-02T01:46:42;10.70;;;4.00;;
13872;SDS011;7006;51.494;11.964;2022-08-02T01:49:11;9.60;;;4.30;;
13872;SDS011;7006;51.494;11.964;2022-08-02T01:51:41;7.73;;;4.00;;
13872;SDS011;7006;51.494;11.964;2022-08-02T01:54:26;8.10;;;3.80;;
13872;SDS011;7006;51.494;11.964;2022-08-02T01:56:55;5.50;;;3.67;;
13872;SDS011;7006;51.494;11.964;2022-08-02T01:59:22;7.90;;;4.40;;
13872;SDS011;7006;51.494;11.964;2022-08-02T02:01:51;7.37;;;4.30;;
13872;SDS011;7006;51.494;11.964;2022-08-02T02:04:19;9.20;;;4.20;;
13872;SDS011;7006;51.494;11.964;2022-08-02T02:06:46;7.00;;;3.90;;
13872;SDS011;7006;51.494;11.964;2022-08-02T02:09:13;5.20;;;3.73;;
13872;SDS011;7006;51.494;11.964;2022-08-02T02:11:40;6.13;;;3.70;;
13872;SDS011;7006;51.494;11.964;2022-08-02T02:14:08;5.70;;;4.13;;
13872;SDS011;7006;51.494;11.964;2022-08-02T02:16:36;7.50;;;4.40;;
13872;SDS011;7006;51.494;11.964;2022-08-02T02:19:07;7.87;;;4.10;;
13872;SDS011;7006;51.494;11.964;2022-08-02T02:21:35;8.07;;;3.80;;
13872;SDS011;7006;51.494;11.964;2022-08-02T02:24:02;6.40;;;3.57;;
13872;SDS011;7006;51.494;11.964;2022-08-02T02:26:29;5.83;;;3.67;;
13872;SDS011;7006;51.494;11.964;2022-08-02T02:28:56;7.43;;;3.83;;
13872;SDS011;7006;51.494;11.964;2022-08-02T02:31:24;6.80;;;3.90;;
13872;SDS011;7006;51.494;11.964;2022-08-02T02:33:55;8.93;;;5.20;;
13872;SDS011;7006;51.494;11.964;2022-08-02T02:36:25;8.13;;;4.10;;
13872;SDS011;7006;51.494;11.964;2022-08-02T02:38:53;6.50;;;3.90;;
13872;SDS011;7006;51.494;11.964;2022-08-02T02:41:21;5.93;;;4.30;;
13872;SDS011;7006;51.494;11.964;2022-08-02T02:43:48;6.50;;;4.13;;
13872;SDS011;7006;51.494;11.964;2022-08-02T02:46:15;6.73;;;3.50;;
13872;SDS011;7006;51.494;11.964;2022-08-02T02:48:42;8.50;;;4.00;;
13872;SDS011;7006;51.494;11.964;2022-08-02T02:51:09;6.10;;;4.10;;
13872;SDS011;7006;51.494;11.964;2022-08-02T02:53:37;11.37;;;3.50;;
13872;SDS011;7006;51.494;11.964;2022-08-02T02:56:04;8.70;;;4.13;;
13872;SDS011;7006;51.494;11.964;2022-08-02T02:58:31;6.57;;;3.47;;
13872;SDS011;7006;51.494;11.964;2022-08-02T03:00:57;7.27;;;3.77;;
13872;SDS011;7006;51.494;11.964;2022-08-02T03:03:42;5.00;;;3.60;;
13872;SDS011;7006;51.494;11.964;2022-08-02T03:06:09;6.37;;;3.80;;
13872;SDS011;7006;51.494;11.964;2022-08-02T03:08:35;7.47;;;3.50;;
13872;SDS011;7006;51.494;11.964;2022-08-02T03:11:03;8.40;;;3.80;;
13872;SDS011;7006;51.494;11.964;2022-08-02T03:13:30;7.30;;;3.77;;
13872;SDS011;7006;51.494;11.964;2022-08-02T03:15:57;5.77;;;3.77;;
13872;SDS011;7006;51.494;11.964;2022-08-02T03:18:32;6.93;;;3.77;;
13872;SDS011;7006;51.494;11.964;2022-08-02T03:20:59;5.00;;;3.30;;
13872;SDS011;7006;51.494;11.964;2022-08-02T03:23:27;6.80;;;3.10;;
13872;SDS011;7006;51.494;11.964;2022-08-02T03:25:54;7.10;;;3.40;;
13872;SDS011;7006;51.494;11.964;2022-08-02T03:28:22;7.23;;;3.67;;
13872;SDS011;7006;51.494;11.964;2022-08-02T03:30:48;6.53;;;4.00;;
13872;SDS011;7006;51.494;11.964;2022-08-02T03:33:15;5.73;;;3.10;;
13872;SDS011;7006;51.494;11.964;2022-08-02T03:35:42;4.60;;;3.17;;
13872;SDS011;7006;51.494;11.964;2022-08-02T03:38:09;7.87;;;3.50;;
13872;SDS011;7006;51.494;11.964;2022-08-02T03:40:37;6.40;;;3.80;;
13872;SDS011;7006;51.494;11.964;2022-08-02T03:43:04;9.73;;;3.83;;
13872;SDS011;7006;51.494;11.964;2022-08-02T03:45:32;8.60;;;3.90;;
13872;SDS011;7006;51.494;11.964;2022-08-02T03:47:59;6.77;;;3.60;;
13872;SDS011;7006;51.494;11.964;2022-08-02T03:50:26;7.30;;;3.50;;
13872;SDS011;7006;51.494;11.964;2022-08-02T03:52:53;7.37;;;4.10;;
13872;SDS011;7006;51.494;11.964;2022-08-02T03:55:19;7.77;;;3.60;;
13872;SDS011;7006;51.494;11.964;2022-08-02T03:57:46;8.60;;;5.43;;
13872;SDS011;7006;51.494;11.964;2022-08-02T04:00:17;6.50;;;3.53;;
13872;SDS011;7006;51.494;11.964;2022-08-02T04:02:45;10.90;;;4.10;;
13872;SDS011;7006;51.494;11.964;2022-08-02T04:05:13;6.57;;;3.80;;
13872;SDS011;7006;51.494;11.964;2022-08-02T04:07:39;6.13;;;3.67;;
13872;SDS011;7006;51.494;11.964;2022-08-02T04:10:07;6.57;;;3.70;;
13872;SDS011;7006;51.494;11.964;2022-08-02T04:12:34;5.47;;;3.27;;
13872;SDS011;7006;51.494;11.964;2022-08-02T04:15:01;8.37;;;3.80;;
13872;SDS011;7006;51.494;11.964;2022-08-02T04:17:29;7.37;;;4.13;;
13872;SDS011;7006;51.494;11.964;2022-08-02T04:20:00;8.33;;;4.10;;
13872;SDS011;7006;51.494;11.964;2022-08-02T04:22:30;4.80;;;3.13;;
13872;SDS011;7006;51.494;11.964;2022-08-02T04:25:01;8.30;;;4.23;;
13872;SDS011;7006;51.494;11.964;2022-08-02T04:27:28;7.90;;;4.30;;
13872;SDS011;7006;51.494;11.964;2022-08-02T04:29:55;9.17;;;4.40;;
13872;SDS011;7006;51.494;11.964;2022-08-02T04:32:23;9.07;;;4.43;;
13872;SDS011;7006;51.494;11.964;2022-08-02T04:34:49;10.40;;;4.07;;
13872;SDS011;7006;51.494;11.964;2022-08-02T04:37:17;8.67;;;4.27;;
13872;SDS011;7006;51.494;11.964;2022-08-02T04:39:44;8.27;;;4.40;;
13872;SDS011;7006;51.494;11.964;2022-08-02T04:42:15;9.17;;;4.97;;
13872;SDS011;7006;51.494;11.964;2022-08-02T04:44:45;5.33;;;3.93;;
13872;SDS011;7006;51.494;11.964;2022-08-02T04:47:11;7.97;;;4.17;;
13872;SDS011;7006;51.494;11.964;2022-08-02T04:49:38;10.23;;;3.70;;
13872;SDS011;7006;51.494;11.964;2022-08-02T04:52:04;10.00;;;5.53;;
13872;SDS011;7006;51.494;11.964;2022-08-02T04:54:32;9.10;;;4.83;;
13872;SDS011;7006;51.494;11.964;2022-08-02T04:56:59;11.40;;;4.33;;
13872;SDS011;7006;51.494;11.964;2022-08-02T04:59:25;6.73;;;3.70;;
13872;SDS011;7006;51.494;11.964;2022-08-02T05:01:52;7.83;;;3.97;;
13872;SDS011;7006;51.494;11.964;2022-08-02T05:04:18;7.73;;;4.10;;
13872;SDS011;7006;51.494;11.964;2022-08-02T05:06:45;7.43;;;4.23;;
13872;SDS011;7006;51.494;11.964;2022-08-02T05:09:11;7.87;;;4.10;;
13872;SDS011;7006;51.494;11.964;2022-08-02T05:11:39;11.87;;;4.80;;
13872;SDS011;7006;51.494;11.964;2022-08-02T05:14:06;8.87;;;4.30;;
13872;SDS011;7006;51.494;11.964;2022-08-02T05:16:32;5.87;;;4.60;;
13872;SDS011;7006;51.494;11.964;2022-08-02T05:18:59;6.10;;;4.50;;
13872;SDS011;7006;51.494;11.964;2022-08-02T05:21:26;6.17;;;3.87;;
13872;SDS011;7006;51.494;11.964;2022-08-02T05:23:53;7.17;;;4.50;;
13872;SDS011;7006;51.494;11.964;2022-08-02T05:26:19;9.03;;;4.70;;
13872;SDS011;7006;51.494;11.964;2022-08-02T05:28:47;8.77;;;5.33;;
13872;SDS011;7006;51.494;11.964;2022-08-02T05:31:14;9.60;;;4.03;;
13872;SDS011;7006;51.494;11.964;2022-08-02T05:33:40;11.13;;;3.97;;
13872;SDS011;7006;51.494;11.964;2022-08-02T05:36:07;8.13;;;4.10;;
13872;SDS011;7006;51.494;11.964;2022-08-02T05:38:34;7.10;;;4.50;;
13872;SDS011;7006;51.494;11.964;2022-08-02T05:41:00;6.63;;;3.77;;
13872;SDS011;7006;51.494;11.964;2022-08-02T05:43:27;8.77;;;4.40;;
13872;SDS011;7006;51.494;11.964;2022-08-02T05:45:55;7.43;;;4.20;;
13872;SDS011;7006;51.494;11.964;2022-08-02T05:48:21;10.90;;;4.10;;
13872;SDS011;7006;51.494;11.964;2022-08-02T05:50:48;5.23;;;3.70;;
13872;SDS011;7006;51.494;11.964;2022-08-02T05:53:23;7.13;;;3.70;;
13872;SDS011;7006;51.494;11.964;2022-08-02T05:55:52;5.77;;;3.80;;
13872;SDS011;7006;51.494;11.964;2022-08-02T05:58:23;5.87;;;3.90;;
13872;SDS011;7006;51.494;11.964;2022-08-02T06:00:56;8.80;;;3.63;;
13872;SDS011;7006;51.494;11.964;2022-08-02T06:03:24;6.50;;;3.80;;
13872;SDS011;7006;51.494;11.964;2022-08-02T06:05:53;9.23;;;4.13;;
13872;SDS011;7006;51.494;11.964;2022-08-02T06:08:27;6.03;;;3.47;;
13872;SDS011;7006;51.494;11.964;2022-08-02T06:10:58;7.13;;;3.80;;
13872;SDS011;7006;51.494;11.964;2022-08-02T06:13:26;8.93;;;3.83;;
13872;SDS011;7006;51.494;11.964;2022-08-02T06:15:55;11.73;;;4.20;;
13872;SDS011;7006;51.494;11.964;2022-08-02T06:18:24;11.27;;;3.47;;
13872;SDS011;7006;51.494;11.964;2022-08-02T06:20:51;8.33;;;3.50;;
13872;SDS011;7006;51.494;11.964;2022-08-02T06:23:18;7.67;;;3.33;;
13872;SDS011;7006;51.494;11.964;2022-08-02T06:25:47;11.40;;;3.67;;
13872;SDS011;7006;51.494;11.964;2022-08-02T06:28:15;8.03;;;3.90;;
13872;SDS011;7006;51.494;11.964;2022-08-02T06:30:43;9.77;;;3.33;;
13872;SDS011;7006;51.494;11.964;2022-08-02T06:33:11;11.40;;;3.70;;
13872;SDS011;7006;51.494;11.964;2022-08-02T06:35:40;8.20;;;3.23;;
13872;SDS011;7006;51.494;11.964;2022-08-02T06:38:11;4.90;;;3.43;;
13872;SDS011;7006;51.494;11.964;2022-08-02T06:40:42;8.87;;;2.97;;
13872;SDS011;7006;51.494;11.964;2022-08-02T06:43:12;4.47;;;2.60;;
13872;SDS011;7006;51.494;11.964;2022-08-02T06:45:42;8.43;;;2.73;;
13872;SDS011;7006;51.494;11.964;2022-08-02T06:48:09;4.77;;;2.87;;
13872;SDS011;7006;51.494;11.964;2022-08-02T06:50:37;5.50;;;2.70;;
13872;SDS011;7006;51.494;11.964;2022-08-02T06:53:05;5.87;;;3.30;;
13872;SDS011;7006;51.494;11.964;2022-08-02T06:55:32;10.33;;;3.53;;
13872;SDS011;7006;51.494;11.964;2022-08-02T06:57:59;4.50;;;2.87;;
13872;SDS011;7006;51.494;11.964;2022-08-02T07:00:27;6.23;;;2.50;;
13872;SDS011;7006;51.494;11.964;2022-08-02T07:02:54;7.60;;;3.10;;
13872;SDS011;7006;51.494;11.964;2022-08-02T07:05:20;9.93;;;2.93;;
13872;SDS011;7006;51.494;11.964;2022-08-02T07:07:48;5.90;;;3.10;;
13872;SDS011;7006;51.494;11.964;2022-08-02T07:10:15;6.03;;;3.13;;
13872;SDS011;7006;51.494;11.964;2022-08-02T07:12:42;4.90;;;2.43;;
13872;SDS011;7006;51.494;11.964;2022-08-02T07:15:08;6.93;;;2.90;;
13872;SDS011;7006;51.494;11.964;2022-08-02T07:17:36;6.07;;;2.77;;
13872;SDS011;7006;51.494;11.964;2022-08-02T07:20:03;6.80;;;2.90;;
13872;SDS011;7006;51.494;11.964;2022-08-02T07:22:31;6.23;;;2.90;;
13872;SDS011;7006;51.494;11.964;2022-08-02T07:24:59;5.93;;;2.90;;
13872;SDS011;7006;51.494;11.964;2022-08-02T07:27:25;4.37;;;2.73;;
13872;SDS011;7006;51.494;11.964;2022-08-02T07:29:52;7.93;;;2.90;;
13872;SDS011;7006;51.494;11.964;2022-08-02T07:32:20;8.03;;;3.13;;
13872;SDS011;7006;51.494;11.964;2022-08-02T07:34:47;5.70;;;2.77;;
13872;SDS011;7006;51.494;11.964;2022-08-02T07:37:14;5.40;;;3.00;;
13872;SDS011;7006;51.494;11.964;2022-08-02T07:39:41;6.57;;;2.53;;
13872;SDS011;7006;51.494;11.964;2022-08-02T07:42:08;6.70;;;2.97;;
13872;SDS011;7006;51.494;11.964;2022-08-02T07:44:35;5.20;;;2.30;;
13872;SDS011;7006;51.494;11.964;2022-08-02T07:47:01;5.53;;;2.67;;
13872;SDS011;7006;51.494;11.964;2022-08-02T07:49:29;5.63;;;2.83;;
13872;SDS011;7006;51.494;11.964;2022-08-02T07:51:55;5.07;;;2.70;;
13872;SDS011;7006;51.494;11.964;2022-08-02T07:54:22;6.07;;;3.07;;
13872;SDS011;7006;51.494;11.964;2022-08-02T07:56:49;5.40;;;2.50;;
13872;SDS011;7006;51.494;11.964;2022-08-02T07:59:18;6.73;;;2.70;;
13872;SDS011;7006;51.494;11.964;2022-08-02T08:01:45;8.50;;;2.97;;
13872;SDS011;7006;51.494;11.964;2022-08-02T08:04:13;6.00;;;2.77;;
13872;SDS011;7006;51.494;11.964;2022-08-02T08:06:39;9.13;;;3.40;;
13872;SDS011;7006;51.494;11.964;2022-08-02T08:09:06;7.33;;;2.50;;
13872;SDS011;7006;51.494;11.964;2022-08-02T08:11:33;6.93;;;3.00;;
13872;SDS011;7006;51.494;11.964;2022-08-02T08:13:59;8.23;;;2.97;;
13872;SDS011;7006;51.494;11.964;2022-08-02T08:16:27;3.80;;;2.67;;
13872;SDS011;7006;51.494;11.964;2022-08-02T08:18:54;6.33;;;3.00;;
13872;SDS011;7006;51.494;11.964;2022-08-02T08:21:21;6.67;;;2.80;;
13872;SDS011;7006;51.494;11.964;2022-08-02T08:23:47;5.90;;;2.90;;
13872;SDS011;7006;51.494;11.964;2022-08-02T08:26:14;7.10;;;2.90;;
13872;SDS011;7006;51.494;11.964;2022-08-02T08:28:41;10.00;;;3.43;;
13872;SDS011;7006;51.494;11.964;2022-08-02T08:31:07;7.40;;;2.80;;
13872;SDS011;7006;51.494;11.964;2022-08-02T08:33:35;7.83;;;3.00;;
13872;SDS011;7006;51.494;11.964;2022-08-02T08:36:02;4.90;;;3.03;;
13872;SDS011;7006;51.494;11.964;2022-08-02T08:38:29;5.37;;;2.90;;
13872;SDS011;7006;51.494;11.964;2022-08-02T08:40:56;7.17;;;3.40;;
13872;SDS011;7006;51.494;11.964;2022-08-02T08:43:22;4.83;;;2.90;;
13872;SDS011;7006;51.494;11.964;2022-08-02T08:45:49;6.70;;;2.93;;
13872;SDS011;7006;51.494;11.964;2022-08-02T08:48:16;8.47;;;3.20;;
13872;SDS011;7006;51.494;11.964;2022-08-02T08:50:46;6.90;;;2.60;;
13872;SDS011;7006;51.494;11.964;2022-08-02T08:53:16;6.10;;;3.17;;
13872;SDS011;7006;51.494;11.964;2022-08-02T08:55:42;5.03;;;2.60;;
13872;SDS011;7006;51.494;11.964;2022-08-02T08:58:09;5.27;;;2.57;;
13872;SDS011;7006;51.494;11.964;2022-08-02T09:00:36;6.80;;;3.00;;
13872;SDS011;7006;51.494;11.964;2022-08-02T09:03:03;5.77;;;3.20;;
13872;SDS011;7006;51.494;11.964;2022-08-02T09:05:32;4.77;;;3.30;;
13872;SDS011;7006;51.494;11.964;2022-08-02T09:08:01;8.63;;;3.17;;
13872;SDS011;7006;51.494;11.964;2022-08-02T09:10:34;6.20;;;2.70;;
13872;SDS011;7006;51.494;11.964;2022-08-02T09:13:09;8.13;;;2.97;;
13872;SDS011;7006;51.494;11.964;2022-08-02T09:15:38;7.20;;;3.10;;
13872;SDS011;7006;51.494;11.964;2022-08-02T09:18:05;9.67;;;3.63;;
13872;SDS011;7006;51.494;11.964;2022-08-02T09:20:32;3.43;;;2.47;;
13872;SDS011;7006;51.494;11.964;2022-08-02T09:23:07;4.67;;;2.90;;
13872;SDS011;7006;51.494;11.964;2022-08-02T09:25:35;6.90;;;3.77;;
13872;SDS011;7006;51.494;11.964;2022-08-02T09:28:02;9.03;;;3.10;;
13872;SDS011;7006;51.494;11.964;2022-08-02T09:30:30;16.03;;;3.80;;
13872;SDS011;7006;51.494;11.964;2022-08-02T09:32:56;8.17;;;3.70;;
13872;SDS011;7006;51.494;11.964;2022-08-02T09:35:32;4.93;;;2.80;;
13872;SDS011;7006;51.494;11.964;2022-08-02T09:38:10;7.17;;;3.50;;
13872;SDS011;7006;51.494;11.964;2022-08-02T09:40:38;6.10;;;3.57;;
13872;SDS011;7006;51.494;11.964;2022-08-02T09:43:06;5.30;;;3.10;;
13872;SDS011;7006;51.494;11.964;2022-08-02T09:45:34;6.40;;;3.10;;
13872;SDS011;7006;51.494;11.964;2022-08-02T09:48:01;5.97;;;3.50;;
13872;SDS011;7006;51.494;11.964;2022-08-02T09:50:28;5.73;;;3.20;;
13872;SDS011;7006;51.494;11.964;2022-08-02T09:52:56;5.77;;;2.97;;
13872;SDS011;7006;51.494;11.964;2022-08-02T09:55:24;5.30;;;3.13;;
13872;SDS011;7006;51.494;11.964;2022-08-02T09:57:51;5.10;;;3.53;;
13872;SDS011;7006;51.494;11.964;2022-08-02T10:00:17;7.30;;;3.07;;
13872;SDS011;7006;51.494;11.964;2022-08-02T10:05:30;4.40;;;3.20;;
13872;SDS011;7006;51.494;11.964;2022-08-02T10:07:57;4.63;;;3.50;;
13872;SDS011;7006;51.494;11.964;2022-08-02T10:10:25;7.13;;;2.90;;
13872;SDS011;7006;51.494;11.964;2022-08-02T10:12:51;4.30;;;3.33;;
13872;SDS011;7006;51.494;11.964;2022-08-02T10:15:18;7.30;;;3.20;;
13872;SDS011;7006;51.494;11.964;2022-08-02T10:17:45;6.80;;;3.37;;
13872;SDS011;7006;51.494;11.964;2022-08-02T10:20:12;7.67;;;3.10;;
13872;SDS011;7006;51.494;11.964;2022-08-02T10:22:38;8.10;;;3.30;;
13872;SDS011;7006;51.494;11.964;2022-08-02T10:25:05;4.97;;;3.30;;
13872;SDS011;7006;51.494;11.964;2022-08-02T10:27:34;6.97;;;3.20;;
13872;SDS011;7006;51.494;11.964;2022-08-02T10:30:01;5.00;;;3.23;;
13872;SDS011;7006;51.494;11.964;2022-08-02T10:32:29;6.90;;;3.30;;
13872;SDS011;7006;51.494;11.964;2022-08-02T10:34:59;5.17;;;3.10;;
13872;SDS011;7006;51.494;11.964;2022-08-02T10:37:30;8.27;;;3.43;;
13872;SDS011;7006;51.494;11.964;2022-08-02T10:39:58;5.27;;;3.57;;
13872;SDS011;7006;51.494;11.964;2022-08-02T10:45:12;3.80;;;2.93;;
13872;SDS011;7006;51.494;11.964;2022-08-02T10:47:56;5.07;;;3.50;;
13872;SDS011;7006;51.494;11.964;2022-08-02T10:53:18;5.30;;;3.53;;
13872;SDS011;7006;51.494;11.964;2022-08-02T10:55:46;6.60;;;3.30;;
13872;SDS011;7006;51.494;11.964;2022-08-02T10:58:18;4.03;;;3.20;;
13872;SDS011;7006;51.494;11.964;2022-08-02T11:00:46;5.93;;;3.13;;
13872;SDS011;7006;51.494;11.964;2022-08-02T11:06:05;6.47;;;2.87;;
13872;SDS011;7006;51.494;11.964;2022-08-02T11:08:32;6.00;;;3.10;;
13872;SDS011;7006;51.494;11.964;2022-08-02T11:11:00;4.63;;;3.27;;
13872;SDS011;7006;51.494;11.964;2022-08-02T11:13:30;6.20;;;3.87;;
13872;SDS011;7006;51.494;11.964;2022-08-02T11:16:00;5.43;;;3.40;;
13872;SDS011;7006;51.494;11.964;2022-08-02T11:21:30;3.83;;;2.90;;
13872;SDS011;7006;51.494;11.964;2022-08-02T11:26:55;4.43;;;3.00;;
13872;SDS011;7006;51.494;11.964;2022-08-02T11:29:31;3.83;;;3.17;;
13872;SDS011;7006;51.494;11.964;2022-08-02T11:31:59;3.77;;;2.77;;
13872;SDS011;7006;51.494;11.964;2022-08-02T11:34:26;4.90;;;3.50;;
13872;SDS011;7006;51.494;11.964;2022-08-02T11:36:53;5.27;;;3.43;;
13872;SDS011;7006;51.494;11.964;2022-08-02T11:39:20;4.40;;;3.13;;
13872;SDS011;7006;51.494;11.964;2022-08-02T11:41:48;7.60;;;5.90;;
13872;SDS011;7006;51.494;11.964;2022-08-02T11:44:16;6.90;;;3.40;;
13872;SDS011;7006;51.494;11.964;2022-08-02T11:46:44;5.43;;;2.97;;
13872;SDS011;7006;51.494;11.964;2022-08-02T11:49:19;5.00;;;3.43;;
13872;SDS011;7006;51.494;11.964;2022-08-02T11:51:55;5.30;;;3.10;;
13872;SDS011;7006;51.494;11.964;2022-08-02T11:54:25;5.43;;;3.07;;
13872;SDS011;7006;51.494;11.964;2022-08-02T11:57:13;9.47;;;3.60;;
13872;SDS011;7006;51.494;11.964;2022-08-02T11:59:41;3.43;;;2.80;;
13872;SDS011;7006;51.494;11.964;2022-08-02T12:02:10;3.50;;;2.70;;
13872;SDS011;7006;51.494;11.964;2022-08-02T12:04:38;6.63;;;2.80;;
13872;SDS011;7006;51.494;11.964;2022-08-02T12:07:06;5.87;;;3.77;;
13872;SDS011;7006;51.494;11.964;2022-08-02T12:09:33;4.23;;;2.77;;
13872;SDS011;7006;51.494;11.964;2022-08-02T12:12:01;4.83;;;2.90;;
13872;SDS011;7006;51.494;11.964;2022-08-02T12:14:29;4.33;;;3.10;;
13872;SDS011;7006;51.494;11.964;2022-08-02T12:16:56;4.00;;;2.73;;
13872;SDS011;7006;51.494;11.964;2022-08-02T12:19:43;3.80;;;2.90;;
13872;SDS011;7006;51.494;11.964;2022-08-02T12:22:13;6.97;;;2.97;;
13872;SDS011;7006;51.494;11.964;2022-08-02T12:24:42;4.53;;;2.77;;
13872;SDS011;7006;51.494;11.964;2022-08-02T12:29:59;4.10;;;3.07;;
13872;SDS011;7006;51.494;11.964;2022-08-02T12:32:27;7.80;;;3.23;;
13872;SDS011;7006;51.494;11.964;2022-08-02T12:35:03;4.90;;;2.87;;
13872;SDS011;7006;51.494;11.964;2022-08-02T12:37:33;9.80;;;2.80;;
13872;SDS011;7006;51.494;11.964;2022-08-02T12:42:44;4.37;;;2.57;;
13872;SDS011;7006;51.494;11.964;2022-08-02T12:45:11;6.47;;;2.97;;
13872;SDS011;7006;51.494;11.964;2022-08-02T12:47:43;8.30;;;2.50;;
13872;SDS011;7006;51.494;11.964;2022-08-02T12:50:13;4.53;;;2.73;;
13872;SDS011;7006;51.494;11.964;2022-08-02T12:52:41;3.77;;;2.67;;
13872;SDS011;7006;51.494;11.964;2022-08-02T12:55:14;4.50;;;2.60;;
13872;SDS011;7006;51.494;11.964;2022-08-02T12:57:49;7.07;;;2.47;;
13872;SDS011;7006;51.494;11.964;2022-08-02T13:00:21;3.30;;;2.40;;
13872;SDS011;7006;51.494;11.964;2022-08-02T13:02:48;5.37;;;2.63;;
13872;SDS011;7006;51.494;11.964;2022-08-02T13:05:16;3.87;;;2.60;;
13872;SDS011;7006;51.494;11.964;2022-08-02T13:07:43;4.07;;;2.53;;
13872;SDS011;7006;51.494;11.964;2022-08-02T13:10:09;5.00;;;2.77;;
13872;SDS011;7006;51.494;11.964;2022-08-02T13:12:36;4.80;;;2.67;;
13872;SDS011;7006;51.494;11.964;2022-08-02T13:15:04;3.60;;;2.70;;
13872;SDS011;7006;51.494;11.964;2022-08-02T13:17:31;4.20;;;2.60;;
13872;SDS011;7006;51.494;11.964;2022-08-02T13:19:57;6.60;;;3.00;;
13872;SDS011;7006;51.494;11.964;2022-08-02T13:22:25;4.07;;;2.67;;
13872;SDS011;7006;51.494;11.964;2022-08-02T13:24:52;7.67;;;2.80;;
13872;SDS011;7006;51.494;11.964;2022-08-02T13:27:18;4.90;;;2.60;;
13872;SDS011;7006;51.494;11.964;2022-08-02T13:29:45;4.60;;;2.07;;
13872;SDS011;7006;51.494;11.964;2022-08-02T13:32:13;4.17;;;2.60;;
13872;SDS011;7006;51.494;11.964;2022-08-02T13:34:39;6.87;;;2.50;;
13872;SDS011;7006;51.494;11.964;2022-08-02T13:37:06;3.73;;;2.23;;
13872;SDS011;7006;51.494;11.964;2022-08-02T13:39:33;2.90;;;2.10;;
13872;SDS011;7006;51.494;11.964;2022-08-02T13:42:00;2.87;;;2.50;;
13872;SDS011;7006;51.494;11.964;2022-08-02T13:44:26;4.53;;;2.13;;
13872;SDS011;7006;51.494;11.964;2022-08-02T13:46:53;3.40;;;2.30;;
13872;SDS011;7006;51.494;11.964;2022-08-02T13:49:19;4.17;;;2.20;;
13872;SDS011;7006;51.494;11.964;2022-08-02T13:51:46;4.97;;;2.77;;
13872;SDS011;7006;51.494;11.964;2022-08-02T13:54:13;4.50;;;2.40;;
13872;SDS011;7006;51.494;11.964;2022-08-02T13:56:41;5.83;;;2.23;;
13872;SDS011;7006;51.494;11.964;2022-08-02T13:59:07;3.43;;;2.17;;
13872;SDS011;7006;51.494;11.964;2022-08-02T14:01:34;6.17;;;2.50;;
13872;SDS011;7006;51.494;11.964;2022-08-02T14:04:00;3.50;;;2.47;;
13872;SDS011;7006;51.494;11.964;2022-08-02T14:06:27;5.30;;;2.67;;
13872;SDS011;7006;51.494;11.964;2022-08-02T14:08:53;6.93;;;2.50;;
13872;SDS011;7006;51.494;11.964;2022-08-02T14:11:20;3.10;;;2.27;;
13872;SDS011;7006;51.494;11.964;2022-08-02T14:13:48;6.00;;;2.73;;
13872;SDS011;7006;51.494;11.964;2022-08-02T14:16:14;4.70;;;2.30;;
13872;SDS011;7006;51.494;11.964;2022-08-02T14:18:41;4.30;;;2.50;;
13872;SDS011;7006;51.494;11.964;2022-08-02T14:21:07;6.53;;;2.50;;
13872;SDS011;7006;51.494;11.964;2022-08-02T14:23:34;2.97;;;2.13;;
13872;SDS011;7006;51.494;11.964;2022-08-02T14:26:00;5.13;;;2.33;;
13872;SDS011;7006;51.494;11.964;2022-08-02T14:28:29;3.33;;;2.20;;
13872;SDS011;7006;51.494;11.964;2022-08-02T14:30:57;5.40;;;2.77;;
13872;SDS011;7006;51.494;11.964;2022-08-02T14:33:23;4.13;;;2.60;;
13872;SDS011;7006;51.494;11.964;2022-08-02T14:35:50;4.57;;;2.97;;
13872;SDS011;7006;51.494;11.964;2022-08-02T14:38:17;3.10;;;2.80;;
13872;SDS011;7006;51.494;11.964;2022-08-02T14:40:44;3.60;;;2.80;;
13872;SDS011;7006;51.494;11.964;2022-08-02T14:43:11;3.80;;;2.43;;
13872;SDS011;7006;51.494;11.964;2022-08-02T14:46:00;3.47;;;2.20;;
13872;SDS011;7006;51.494;11.964;2022-08-02T14:48:26;3.80;;;2.00;;
13872;SDS011;7006;51.494;11.964;2022-08-02T14:50:53;3.67;;;2.23;;
13872;SDS011;7006;51.494;11.964;2022-08-02T14:53:20;2.73;;;2.27;;
13872;SDS011;7006;51.494;11.964;2022-08-02T14:55:47;3.47;;;2.60;;
13872;SDS011;7006;51.494;11.964;2022-08-02T14:58:15;5.17;;;2.53;;
13872;SDS011;7006;51.494;11.964;2022-08-02T15:00:42;5.33;;;2.07;;
13872;SDS011;7006;51.494;11.964;2022-08-02T15:03:10;6.00;;;2.50;;
13872;SDS011;7006;51.494;11.964;2022-08-02T15:05:37;2.70;;;2.20;;
13872;SDS011;7006;51.494;11.964;2022-08-02T15:08:04;6.50;;;2.73;;
13872;SDS011;7006;51.494;11.964;2022-08-02T15:10:31;3.53;;;2.53;;
13872;SDS011;7006;51.494;11.964;2022-08-02T15:12:57;2.90;;;1.90;;
13872;SDS011;7006;51.494;11.964;2022-08-02T15:15:24;4.17;;;2.50;;